sensor_id;sensor_type;location;lat;lon;timestamp;temperature;humidity
5723;DHT22;2886;49.722;8.612;2022-12-24T00:00:19;11.30;99.90
5723;DHT22;2886;49.722;8.612;2022-12-24T00:02:44;11.40;99.90
5723;DHT22;2886;49.722;8.612;2022-12-24T00:05:10;11.40;99.90
5723;DHT22;2886;49.722;8.612;2022-12-24T00:07:36;11.40;99.90
5723;DHT22;2886;49.722;8.612;2022-12-24T00:10:03;11.40;99.90
5723;DHT22;2886;49.722;8.612;2022-12-24T00:12:29;11.50;99.90
5723;DHT22;2886;49.722;8.612;2022-12-24T00:14:54;11.60;99.90
5723;DHT22;2886;49.722;8.612;2022-12-24T00:17:20;11.60;99.90
5723;DHT22;2886;49.722;8.612;2022-12-24T00:19:46;11.60;99.90
5723;DHT22;2886;49.722;8.612;2022-12-24T00:22:12;11.60;99.90
5723;DHT22;2886;49.722;8.612;2022-12-24T00:24:37;11.70;99.90
5723;DHT22;2886;49.722;8.612;2022-12-24T00:27:03;11.70;99.90
5723;DHT22;2886;49.722;8.612;2022-12-24T00:29:30;11.60;99.90
5723;DHT22;2886;49.722;8.612;2022-12-24T00:31:57;11.60;99.90
5723;DHT22;2886;49.722;8.612;2022-12-24T00:34:23;11.60;99.90
5723;DHT22;2886;49.722;8.612;2022-12-24T00:36:49;11.50;99.90
5723;DHT22;2886;49.722;8.612;2022-12-24T00:39:14;11.40;99.90
5723;DHT22;2886;49.722;8.612;2022-12-24T00:41:40;11.30;99.90
5723;DHT22;2886;49.722;8.612;2022-12-24T00:44:07;11.30;99.90
5723;DHT22;2886;49.722;8.612;2022-12-24T00:46:38;11.30;99.90
5723;DHT22;2886;49.722;8.612;2022-12-24T00:49:05;11.20;99.90
5723;DHT22;2886;49.722;8.612;2022-12-24T00:51:31;11.20;99.90
5723;DHT22;2886;49.722;8.612;2022-12-24T00:53:57;11.30;99.90
5723;DHT22;2886;49.722;8.612;2022-12-24T00:56:22;11.30;99.90
5723;DHT22;2886;49.722;8.612;2022-12-24T00:58:48;11.20;99.90
5723;DHT22;2886;49.722;8.612;2022-12-24T01:01:15;11.20;99.90
5723;DHT22;2886;49.722;8.612;2022-12-24T01:03:41;11.20;99.90
5723;DHT22;2886;49.722;8.612;2022-12-24T01:06:16;11.20;99.90
5723;DHT22;2886;49.722;8.612;2022-12-24T01:08:42;11.20;99.90
5723;DHT22;2886;49.722;8.612;2022-12-24T01:11:08;11.20;99.90
5723;DHT22;2886;49.722;8.612;2022-12-24T01:13:35;11.20;99.90
5723;DHT22;2886;49.722;8.612;2022-12-24T01:16:01;11.20;99.90
5723;DHT22;2886;49.722;8.612;2022-12-24T01:18:27;11.20;99.90
5723;DHT22;2886;49.722;8.612;2022-12-24T01:20:59;11.20;99.90
5723;DHT22;2886;49.722;8.612;2022-12-24T01:23:25;11.20;99.90
5723;DHT22;2886;49.722;8.612;2022-12-24T01:25:51;11.20;99.90
5723;DHT22;2886;49.722;8.612;2022-12-24T01:28:17;11.10;99.90
5723;DHT22;2886;49.722;8.612;2022-12-24T01:30:43;11.10;99.90
5723;DHT22;2886;49.722;8.612;2022-12-24T01:33:09;11.10;99.90
5723;DHT22;2886;49.722;8.612;2022-12-24T01:35:38;11.00;99.90
5723;DHT22;2886;49.722;8.612;2022-12-24T01:38:04;11.00;99.90
5723;DHT22;2886;49.722;8.612;2022-12-24T01:40:30;11.00;99.90
5723;DHT22;2886;49.722;8.612;2022-12-24T01:43:17;10.90;99.90
5723;DHT22;2886;49.722;8.612;2022-12-24T01:51:47;10.80;99.90
5723;DHT22;2886;49.722;8.612;2022-12-24T01:54:01;10.80;99.90
5723;DHT22;2886;49.722;8.612;2022-12-24T01:56:32;10.80;99.90
5723;DHT22;2886;49.722;8.612;2022-12-24T01:59:05;10.80;99.90
5723;DHT22;2886;49.722;8.612;2022-12-24T02:01:31;10.90;99.90
5723;DHT22;2886;49.722;8.612;2022-12-24T02:03:57;10.80;99.90
5723;DHT22;2886;49.722;8.612;2022-12-24T02:06:22;10.80;99.90
5723;DHT22;2886;49.722;8.612;2022-12-24T02:08:49;10.80;99.90
5723;DHT22;2886;49.722;8.612;2022-12-24T02:11:17;10.70;99.90
5723;DHT22;2886;49.722;8.612;2022-12-24T02:13:48;10.70;99.90
5723;DHT22;2886;49.722;8.612;2022-12-24T02:25:31;10.70;99.90
5723;DHT22;2886;49.722;8.612;2022-12-24T02:30:40;10.80;99.90
5723;DHT22;2886;49.722;8.612;2022-12-24T02:33:28;10.90;99.90
5723;DHT22;2886;49.722;8.612;2022-12-24T02:35:55;10.90;99.90
5723;DHT22;2886;49.722;8.612;2022-12-24T02:38:26;10.90;99.90
5723;DHT22;2886;49.722;8.612;2022-12-24T02:41:00;11.00;99.90
5723;DHT22;2886;49.722;8.612;2022-12-24T02:43:32;11.00;99.90
5723;DHT22;2886;49.722;8.612;2022-12-24T02:46:21;11.00;99.90
5723;DHT22;2886;49.722;8.612;2022-12-24T02:48:48;11.10;99.90
5723;DHT22;2886;49.722;8.612;2022-12-24T02:51:15;11.10;99.90
5723;DHT22;2886;49.722;8.612;2022-12-24T02:53:41;11.10;99.90
5723;DHT22;2886;49.722;8.612;2022-12-24T03:01:30;11.10;99.90
5723;DHT22;2886;49.722;8.612;2022-12-24T03:04:27;11.20;99.90
5723;DHT22;2886;49.722;8.612;2022-12-24T03:12:43;11.20;99.90
5723;DHT22;2886;49.722;8.612;2022-12-24T03:15:13;11.20;99.90
5723;DHT22;2886;49.722;8.612;2022-12-24T03:17:41;11.20;99.90
5723;DHT22;2886;49.722;8.612;2022-12-24T03:20:09;11.20;99.90
5723;DHT22;2886;49.722;8.612;2022-12-24T03:22:35;11.20;99.90
5723;DHT22;2886;49.722;8.612;2022-12-24T03:25:02;11.20;99.90
5723;DHT22;2886;49.722;8.612;2022-12-24T03:27:29;11.20;99.90
5723;DHT22;2886;49.722;8.612;2022-12-24T03:29:57;11.20;99.90
5723;DHT22;2886;49.722;8.612;2022-12-24T03:32:32;11.30;99.90
5723;DHT22;2886;49.722;8.612;2022-12-24T03:34:57;11.30;99.90
5723;DHT22;2886;49.722;8.612;2022-12-24T03:37:24;11.30;99.90
5723;DHT22;2886;49.722;8.612;2022-12-24T03:39:50;11.30;99.90
5723;DHT22;2886;49.722;8.612;2022-12-24T03:42:15;11.30;99.90
5723;DHT22;2886;49.722;8.612;2022-12-24T03:44:41;11.30;99.90
5723;DHT22;2886;49.722;8.612;2022-12-24T03:47:06;11.30;99.90
5723;DHT22;2886;49.722;8.612;2022-12-24T03:49:32;11.30;99.90
5723;DHT22;2886;49.722;8.612;2022-12-24T03:51:59;11.20;99.90
5723;DHT22;2886;49.722;8.612;2022-12-24T03:54:24;11.20;99.90
5723;DHT22;2886;49.722;8.612;2022-12-24T03:56:50;11.30;99.90
5723;DHT22;2886;49.722;8.612;2022-12-24T03:59:15;11.20;99.90
5723;DHT22;2886;49.722;8.612;2022-12-24T04:01:41;11.30;99.90
5723;DHT22;2886;49.722;8.612;2022-12-24T04:04:07;11.30;99.90
5723;DHT22;2886;49.722;8.612;2022-12-24T04:06:33;11.30;99.90
5723;DHT22;2886;49.722;8.612;2022-12-24T04:08:58;11.30;99.90
5723;DHT22;2886;49.722;8.612;2022-12-24T04:11:26;11.30;99.90
5723;DHT22;2886;49.722;8.612;2022-12-24T04:13:52;11.30;99.90
5723;DHT22;2886;49.722;8.612;2022-12-24T04:16:17;11.30;99.90
5723;DHT22;2886;49.722;8.612;2022-12-24T04:18:43;11.30;99.90
5723;DHT22;2886;49.722;8.612;2022-12-24T04:21:10;11.30;99.90
5723;DHT22;2886;49.722;8.612;2022-12-24T04:23:37;11.30;99.90
5723;DHT22;2886;49.722;8.612;2022-12-24T04:26:05;11.30;99.90
5723;DHT22;2886;49.722;8.612;2022-12-24T04:28:32;11.30;99.90
5723;DHT22;2886;49.722;8.612;2022-12-24T04:30:58;11.30;99.90
5723;DHT22;2886;49.722;8.612;2022-12-24T04:33:24;11.30;99.90
5723;DHT22;2886;49.722;8.612;2022-12-24T04:35:50;11.30;99.90
5723;DHT22;2886;49.722;8.612;2022-12-24T04:38:16;11.20;99.90
5723;DHT22;2886;49.722;8.612;2022-12-24T04:40:41;11.20;99.90
5723;DHT22;2886;49.722;8.612;2022-12-24T04:43:07;11.20;99.90
5723;DHT22;2886;49.722;8.612;2022-12-24T04:45:33;11.20;99.90
5723;DHT22;2886;49.722;8.612;2022-12-24T04:47:58;11.10;99.90
5723;DHT22;2886;49.722;8.612;2022-12-24T04:50:24;11.10;99.90
5723;DHT22;2886;49.722;8.612;2022-12-24T04:52:49;11.00;99.90
5723;DHT22;2886;49.722;8.612;2022-12-24T04:55:15;11.00;99.90
5723;DHT22;2886;49.722;8.612;2022-12-24T04:57:41;11.00;99.90
5723;DHT22;2886;49.722;8.612;2022-12-24T05:00:07;10.90;99.90
5723;DHT22;2886;49.722;8.612;2022-12-24T05:02:33;10.90;99.90
5723;DHT22;2886;49.722;8.612;2022-12-24T05:04:58;10.90;99.90
5723;DHT22;2886;49.722;8.612;2022-12-24T05:07:24;10.90;99.90
5723;DHT22;2886;49.722;8.612;2022-12-24T05:09:49;10.80;99.90
5723;DHT22;2886;49.722;8.612;2022-12-24T05:12:15;10.80;99.90
5723;DHT22;2886;49.722;8.612;2022-12-24T05:14:41;10.80;99.90
5723;DHT22;2886;49.722;8.612;2022-12-24T05:17:06;10.80;99.90
5723;DHT22;2886;49.722;8.612;2022-12-24T05:19:32;10.80;99.90
5723;DHT22;2886;49.722;8.612;2022-12-24T05:21:57;10.80;99.90
5723;DHT22;2886;49.722;8.612;2022-12-24T05:24:41;10.90;99.90
5723;DHT22;2886;49.722;8.612;2022-12-24T05:27:26;10.90;99.90
5723;DHT22;2886;49.722;8.612;2022-12-24T05:29:51;10.90;99.90
5723;DHT22;2886;49.722;8.612;2022-12-24T05:32:17;10.90;99.90
5723;DHT22;2886;49.722;8.612;2022-12-24T05:34:43;10.90;99.90
5723;DHT22;2886;49.722;8.612;2022-12-24T05:37:09;11.00;99.90
5723;DHT22;2886;49.722;8.612;2022-12-24T05:39:35;11.00;99.90
5723;DHT22;2886;49.722;8.612;2022-12-24T05:42:00;11.10;99.90
5723;DHT22;2886;49.722;8.612;2022-12-24T05:44:26;11.10;99.90
5723;DHT22;2886;49.722;8.612;2022-12-24T05:46:51;11.10;99.90
5723;DHT22;2886;49.722;8.612;2022-12-24T05:49:17;11.10;99.90
5723;DHT22;2886;49.722;8.612;2022-12-24T05:51:43;11.10;99.90
5723;DHT22;2886;49.722;8.612;2022-12-24T05:54:09;11.10;99.90
5723;DHT22;2886;49.722;8.612;2022-12-24T05:56:34;11.10;99.90
5723;DHT22;2886;49.722;8.612;2022-12-24T05:59:00;11.10;99.90
5723;DHT22;2886;49.722;8.612;2022-12-24T06:01:26;11.10;99.90
5723;DHT22;2886;49.722;8.612;2022-12-24T06:03:52;11.10;99.90
5723;DHT22;2886;49.722;8.612;2022-12-24T06:06:23;11.10;99.90
5723;DHT22;2886;49.722;8.612;2022-12-24T06:08:50;11.10;99.90
5723;DHT22;2886;49.722;8.612;2022-12-24T06:11:19;11.10;99.90
5723;DHT22;2886;49.722;8.612;2022-12-24T06:13:45;11.10;99.90
5723;DHT22;2886;49.722;8.612;2022-12-24T06:16:13;11.10;99.90
5723;DHT22;2886;49.722;8.612;2022-12-24T06:18:39;11.10;99.90
5723;DHT22;2886;49.722;8.612;2022-12-24T06:21:05;11.10;99.90
5723;DHT22;2886;49.722;8.612;2022-12-24T06:23:34;11.10;99.90
5723;DHT22;2886;49.722;8.612;2022-12-24T06:26:01;11.10;99.90
5723;DHT22;2886;49.722;8.612;2022-12-24T06:28:28;11.00;99.90
5723;DHT22;2886;49.722;8.612;2022-12-24T06:30:54;11.00;99.90
5723;DHT22;2886;49.722;8.612;2022-12-24T06:33:19;11.00;99.90
5723;DHT22;2886;49.722;8.612;2022-12-24T06:35:46;10.90;99.90
5723;DHT22;2886;49.722;8.612;2022-12-24T06:38:12;10.90;99.90
5723;DHT22;2886;49.722;8.612;2022-12-24T06:40:39;10.90;99.90
5723;DHT22;2886;49.722;8.612;2022-12-24T06:43:04;10.80;99.90
5723;DHT22;2886;49.722;8.612;2022-12-24T06:45:30;10.70;99.90
5723;DHT22;2886;49.722;8.612;2022-12-24T06:47:56;10.70;99.90
5723;DHT22;2886;49.722;8.612;2022-12-24T06:50:22;10.70;99.90
5723;DHT22;2886;49.722;8.612;2022-12-24T06:52:48;10.70;99.90
5723;DHT22;2886;49.722;8.612;2022-12-24T06:55:14;10.70;99.90
5723;DHT22;2886;49.722;8.612;2022-12-24T06:57:39;10.70;99.90
5723;DHT22;2886;49.722;8.612;2022-12-24T07:00:07;10.70;99.90
5723;DHT22;2886;49.722;8.612;2022-12-24T07:02:33;10.70;99.90
5723;DHT22;2886;49.722;8.612;2022-12-24T07:04:59;10.70;99.90
5723;DHT22;2886;49.722;8.612;2022-12-24T07:07:24;10.70;99.90
5723;DHT22;2886;49.722;8.612;2022-12-24T07:09:50;10.70;99.90
5723;DHT22;2886;49.722;8.612;2022-12-24T07:12:15;10.70;99.90
5723;DHT22;2886;49.722;8.612;2022-12-24T07:14:41;10.80;99.90
5723;DHT22;2886;49.722;8.612;2022-12-24T07:17:07;10.80;99.90
5723;DHT22;2886;49.722;8.612;2022-12-24T07:19:32;10.80;99.90
5723;DHT22;2886;49.722;8.612;2022-12-24T07:21:59;10.80;99.90
5723;DHT22;2886;49.722;8.612;2022-12-24T07:24:24;10.80;99.90
5723;DHT22;2886;49.722;8.612;2022-12-24T07:26:50;10.90;99.90
5723;DHT22;2886;49.722;8.612;2022-12-24T07:29:16;10.80;99.90
5723;DHT22;2886;49.722;8.612;2022-12-24T07:31:41;10.80;99.90
5723;DHT22;2886;49.722;8.612;2022-12-24T07:34:07;10.80;99.90
5723;DHT22;2886;49.722;8.612;2022-12-24T07:36:38;10.90;99.90
5723;DHT22;2886;49.722;8.612;2022-12-24T07:39:04;10.90;99.90
5723;DHT22;2886;49.722;8.612;2022-12-24T07:41:29;10.80;99.90
5723;DHT22;2886;49.722;8.612;2022-12-24T07:43:55;10.80;99.90
5723;DHT22;2886;49.722;8.612;2022-12-24T07:46:21;10.90;99.90
5723;DHT22;2886;49.722;8.612;2022-12-24T07:48:46;10.90;99.90
5723;DHT22;2886;49.722;8.612;2022-12-24T07:51:12;10.90;99.90
5723;DHT22;2886;49.722;8.612;2022-12-24T07:53:38;10.90;99.90
5723;DHT22;2886;49.722;8.612;2022-12-24T07:56:03;11.00;99.90
5723;DHT22;2886;49.722;8.612;2022-12-24T07:58:29;11.00;99.90
5723;DHT22;2886;49.722;8.612;2022-12-24T08:00:56;10.90;99.90
5723;DHT22;2886;49.722;8.612;2022-12-24T08:03:22;11.00;99.90
5723;DHT22;2886;49.722;8.612;2022-12-24T08:05:48;11.00;99.90
5723;DHT22;2886;49.722;8.612;2022-12-24T08:08:14;11.00;99.90
5723;DHT22;2886;49.722;8.612;2022-12-24T08:10:41;11.00;99.90
5723;DHT22;2886;49.722;8.612;2022-12-24T08:13:07;11.00;99.90
5723;DHT22;2886;49.722;8.612;2022-12-24T08:15:33;11.00;99.90
5723;DHT22;2886;49.722;8.612;2022-12-24T08:17:58;11.00;99.90
5723;DHT22;2886;49.722;8.612;2022-12-24T08:20:24;11.10;99.90
5723;DHT22;2886;49.722;8.612;2022-12-24T08:22:50;11.10;99.90
5723;DHT22;2886;49.722;8.612;2022-12-24T08:25:15;11.10;99.90
5723;DHT22;2886;49.722;8.612;2022-12-24T08:27:41;11.10;99.90
5723;DHT22;2886;49.722;8.612;2022-12-24T08:30:07;11.10;99.90
5723;DHT22;2886;49.722;8.612;2022-12-24T08:32:33;11.20;99.90
5723;DHT22;2886;49.722;8.612;2022-12-24T08:34:58;11.20;99.90
5723;DHT22;2886;49.722;8.612;2022-12-24T08:37:24;11.30;99.90
5723;DHT22;2886;49.722;8.612;2022-12-24T08:39:50;11.30;99.90
5723;DHT22;2886;49.722;8.612;2022-12-24T08:42:15;11.30;99.90
5723;DHT22;2886;49.722;8.612;2022-12-24T08:44:41;11.30;99.90
5723;DHT22;2886;49.722;8.612;2022-12-24T08:47:07;11.30;99.90
5723;DHT22;2886;49.722;8.612;2022-12-24T08:49:33;11.30;99.90
5723;DHT22;2886;49.722;8.612;2022-12-24T08:51:58;11.40;99.90
5723;DHT22;2886;49.722;8.612;2022-12-24T08:54:24;11.40;99.90
5723;DHT22;2886;49.722;8.612;2022-12-24T08:56:50;11.60;99.90
5723;DHT22;2886;49.722;8.612;2022-12-24T08:59:16;11.70;99.90
5723;DHT22;2886;49.722;8.612;2022-12-24T09:01:42;11.80;99.90
5723;DHT22;2886;49.722;8.612;2022-12-24T09:04:08;11.90;99.90
5723;DHT22;2886;49.722;8.612;2022-12-24T09:06:34;11.90;99.90
5723;DHT22;2886;49.722;8.612;2022-12-24T09:09:00;11.90;99.90
5723;DHT22;2886;49.722;8.612;2022-12-24T09:11:26;11.90;99.90
5723;DHT22;2886;49.722;8.612;2022-12-24T09:13:53;11.90;99.90
5723;DHT22;2886;49.722;8.612;2022-12-24T09:16:19;11.90;99.90
5723;DHT22;2886;49.722;8.612;2022-12-24T09:18:44;11.90;99.90
5723;DHT22;2886;49.722;8.612;2022-12-24T09:21:13;12.00;99.90
5723;DHT22;2886;49.722;8.612;2022-12-24T09:23:40;12.00;99.90
5723;DHT22;2886;49.722;8.612;2022-12-24T09:26:13;12.10;99.90
5723;DHT22;2886;49.722;8.612;2022-12-24T09:28:38;12.10;99.90
5723;DHT22;2886;49.722;8.612;2022-12-24T09:31:05;12.30;99.90
5723;DHT22;2886;49.722;8.612;2022-12-24T09:33:35;12.30;99.90
5723;DHT22;2886;49.722;8.612;2022-12-24T09:36:02;12.40;99.90
5723;DHT22;2886;49.722;8.612;2022-12-24T09:38:27;12.40;99.90
5723;DHT22;2886;49.722;8.612;2022-12-24T09:40:54;12.40;99.90
5723;DHT22;2886;49.722;8.612;2022-12-24T09:43:22;12.50;99.90
5723;DHT22;2886;49.722;8.612;2022-12-24T09:48:23;12.50;99.90
5723;DHT22;2886;49.722;8.612;2022-12-24T09:53:48;12.60;99.90
5723;DHT22;2886;49.722;8.612;2022-12-24T09:56:19;12.60;99.90
5723;DHT22;2886;49.722;8.612;2022-12-24T09:58:48;12.70;99.90
5723;DHT22;2886;49.722;8.612;2022-12-24T10:01:16;12.70;99.90
5723;DHT22;2886;49.722;8.612;2022-12-24T10:03:43;12.80;99.90
5723;DHT22;2886;49.722;8.612;2022-12-24T10:06:18;12.70;99.90
5723;DHT22;2886;49.722;8.612;2022-12-24T10:11:45;12.80;99.90
5723;DHT22;2886;49.722;8.612;2022-12-24T10:27:45;13.10;99.90
5723;DHT22;2886;49.722;8.612;2022-12-24T10:30:21;13.20;99.90
5723;DHT22;2886;49.722;8.612;2022-12-24T10:32:52;13.10;99.90
5723;DHT22;2886;49.722;8.612;2022-12-24T10:35:22;13.10;99.90
5723;DHT22;2886;49.722;8.612;2022-12-24T10:37:49;13.10;99.90
5723;DHT22;2886;49.722;8.612;2022-12-24T10:40:46;13.10;99.90
5723;DHT22;2886;49.722;8.612;2022-12-24T10:43:22;13.00;99.90
5723;DHT22;2886;49.722;8.612;2022-12-24T10:45:51;13.00;99.90
5723;DHT22;2886;49.722;8.612;2022-12-24T10:48:24;13.10;99.90
5723;DHT22;2886;49.722;8.612;2022-12-24T10:51:02;13.20;99.90
5723;DHT22;2886;49.722;8.612;2022-12-24T10:53:35;13.20;99.90
5723;DHT22;2886;49.722;8.612;2022-12-24T10:56:07;13.20;99.90
5723;DHT22;2886;49.722;8.612;2022-12-24T10:58:34;13.30;99.90
5723;DHT22;2886;49.722;8.612;2022-12-24T11:01:00;13.30;99.90
5723;DHT22;2886;49.722;8.612;2022-12-24T11:03:35;13.20;99.90
5723;DHT22;2886;49.722;8.612;2022-12-24T11:06:16;13.20;99.90
5723;DHT22;2886;49.722;8.612;2022-12-24T11:08:47;13.20;99.90
5723;DHT22;2886;49.722;8.612;2022-12-24T11:11:19;13.20;99.90
5723;DHT22;2886;49.722;8.612;2022-12-24T11:13:45;13.20;99.90
5723;DHT22;2886;49.722;8.612;2022-12-24T11:16:29;13.20;99.90
5723;DHT22;2886;49.722;8.612;2022-12-24T11:18:58;13.30;99.90
5723;DHT22;2886;49.722;8.612;2022-12-24T11:21:37;13.30;99.90
5723;DHT22;2886;49.722;8.612;2022-12-24T11:26:42;13.40;99.90
5723;DHT22;2886;49.722;8.612;2022-12-24T11:29:12;13.40;99.90
5723;DHT22;2886;49.722;8.612;2022-12-24T11:31:39;13.40;99.90
5723;DHT22;2886;49.722;8.612;2022-12-24T11:34:24;13.40;99.90
5723;DHT22;2886;49.722;8.612;2022-12-24T11:36:51;13.40;99.90
5723;DHT22;2886;49.722;8.612;2022-12-24T11:39:20;13.40;99.90
5723;DHT22;2886;49.722;8.612;2022-12-24T11:41:48;13.40;99.90
5723;DHT22;2886;49.722;8.612;2022-12-24T11:44:26;13.40;99.90
5723;DHT22;2886;49.722;8.612;2022-12-24T11:46:53;13.40;99.90
5723;DHT22;2886;49.722;8.612;2022-12-24T11:49:29;13.40;99.90
5723;DHT22;2886;49.722;8.612;2022-12-24T12:00:15;13.30;99.90
5723;DHT22;2886;49.722;8.612;2022-12-24T12:02:42;13.20;99.90
5723;DHT22;2886;49.722;8.612;2022-12-24T12:05:42;13.20;99.90
5723;DHT22;2886;49.722;8.612;2022-12-24T12:08:16;13.20;99.90
5723;DHT22;2886;49.722;8.612;2022-12-24T12:10:44;13.10;99.90
5723;DHT22;2886;49.722;8.612;2022-12-24T12:13:13;13.10;99.90
5723;DHT22;2886;49.722;8.612;2022-12-24T12:16:18;13.00;99.90
5723;DHT22;2886;49.722;8.612;2022-12-24T12:18:39;12.90;99.90
5723;DHT22;2886;49.722;8.612;2022-12-24T12:21:17;12.80;99.90
5723;DHT22;2886;49.722;8.612;2022-12-24T12:23:51;12.70;99.90
5723;DHT22;2886;49.722;8.612;2022-12-24T12:26:23;12.70;99.90
5723;DHT22;2886;49.722;8.612;2022-12-24T12:29:09;12.60;99.90
5723;DHT22;2886;49.722;8.612;2022-12-24T12:31:48;12.50;99.90
5723;DHT22;2886;49.722;8.612;2022-12-24T12:34:28;12.50;99.90
5723;DHT22;2886;49.722;8.612;2022-12-24T12:37:02;12.40;99.90
5723;DHT22;2886;49.722;8.612;2022-12-24T12:39:30;12.40;99.90
5723;DHT22;2886;49.722;8.612;2022-12-24T12:42:30;12.40;99.90
5723;DHT22;2886;49.722;8.612;2022-12-24T12:50:42;12.20;99.90
5723;DHT22;2886;49.722;8.612;2022-12-24T12:53:22;12.20;99.90
5723;DHT22;2886;49.722;8.612;2022-12-24T12:56:34;12.10;99.90
5723;DHT22;2886;49.722;8.612;2022-12-24T12:59:11;12.10;99.90
5723;DHT22;2886;49.722;8.612;2022-12-24T13:02:02;12.00;99.90
5723;DHT22;2886;49.722;8.612;2022-12-24T13:04:56;12.00;99.90
5723;DHT22;2886;49.722;8.612;2022-12-24T13:10:44;12.10;99.90
5723;DHT22;2886;49.722;8.612;2022-12-24T13:13:43;12.10;99.90
5723;DHT22;2886;49.722;8.612;2022-12-24T13:19:31;12.20;99.90
5723;DHT22;2886;49.722;8.612;2022-12-24T13:21:58;12.20;99.90
5723;DHT22;2886;49.722;8.612;2022-12-24T13:24:30;12.20;99.90
5723;DHT22;2886;49.722;8.612;2022-12-24T13:27:03;12.20;99.90
5723;DHT22;2886;49.722;8.612;2022-12-24T13:35:01;12.20;99.90
5723;DHT22;2886;49.722;8.612;2022-12-24T13:40:22;12.00;99.90
5723;DHT22;2886;49.722;8.612;2022-12-24T13:50:50;12.00;99.90
5723;DHT22;2886;49.722;8.612;2022-12-24T13:58:44;12.00;99.90
5723;DHT22;2886;49.722;8.612;2022-12-24T14:01:45;12.10;99.90
5723;DHT22;2886;49.722;8.612;2022-12-24T14:04:06;12.10;99.90
5723;DHT22;2886;49.722;8.612;2022-12-24T14:06:39;12.10;99.90
5723;DHT22;2886;49.722;8.612;2022-12-24T14:09:17;12.10;99.90
5723;DHT22;2886;49.722;8.612;2022-12-24T14:14:37;12.10;99.90
5723;DHT22;2886;49.722;8.612;2022-12-24T14:17:22;12.10;99.90
5723;DHT22;2886;49.722;8.612;2022-12-24T14:19:51;12.00;99.90
5723;DHT22;2886;49.722;8.612;2022-12-24T14:22:37;11.90;99.90
5723;DHT22;2886;49.722;8.612;2022-12-24T14:25:14;11.90;99.90
5723;DHT22;2886;49.722;8.612;2022-12-24T14:30:21;11.70;99.90
5723;DHT22;2886;49.722;8.612;2022-12-24T14:32:48;11.70;99.90
5723;DHT22;2886;49.722;8.612;2022-12-24T14:35:17;11.70;99.90
5723;DHT22;2886;49.722;8.612;2022-12-24T14:38:14;11.70;99.90
5723;DHT22;2886;49.722;8.612;2022-12-24T14:46:37;11.50;99.90
5723;DHT22;2886;49.722;8.612;2022-12-24T14:49:16;11.50;99.90
5723;DHT22;2886;49.722;8.612;2022-12-24T14:52:23;11.50;99.90
5723;DHT22;2886;49.722;8.612;2022-12-24T14:54:51;11.40;99.90
5723;DHT22;2886;49.722;8.612;2022-12-24T14:57:21;11.30;99.90
5723;DHT22;2886;49.722;8.612;2022-12-24T14:59:55;11.30;99.90
5723;DHT22;2886;49.722;8.612;2022-12-24T15:05:18;11.20;99.90
5723;DHT22;2886;49.722;8.612;2022-12-24T15:13:00;11.10;99.90
5723;DHT22;2886;49.722;8.612;2022-12-24T15:15:26;11.10;99.90
5723;DHT22;2886;49.722;8.612;2022-12-24T15:17:59;11.10;99.90
5723;DHT22;2886;49.722;8.612;2022-12-24T15:20:28;11.10;99.90
5723;DHT22;2886;49.722;8.612;2022-12-24T15:22:56;11.10;99.90
5723;DHT22;2886;49.722;8.612;2022-12-24T15:25:29;11.10;99.90
5723;DHT22;2886;49.722;8.612;2022-12-24T15:27:56;11.10;99.90
5723;DHT22;2886;49.722;8.612;2022-12-24T15:30:27;11.10;99.90
5723;DHT22;2886;49.722;8.612;2022-12-24T15:32:54;11.10;99.90
5723;DHT22;2886;49.722;8.612;2022-12-24T15:35:53;11.10;99.90
5723;DHT22;2886;49.722;8.612;2022-12-24T15:38:31;11.00;99.90
5723;DHT22;2886;49.722;8.612;2022-12-24T15:41:04;11.10;99.90
5723;DHT22;2886;49.722;8.612;2022-12-24T15:43:31;11.00;99.90
5723;DHT22;2886;49.722;8.612;2022-12-24T15:45:57;11.00;99.90
5723;DHT22;2886;49.722;8.612;2022-12-24T15:48:27;11.00;99.90
5723;DHT22;2886;49.722;8.612;2022-12-24T15:51:01;11.00;99.90
5723;DHT22;2886;49.722;8.612;2022-12-24T15:53:37;11.00;99.90
5723;DHT22;2886;49.722;8.612;2022-12-24T15:56:34;11.00;99.90
5723;DHT22;2886;49.722;8.612;2022-12-24T16:01:45;11.00;99.90
5723;DHT22;2886;49.722;8.612;2022-12-24T16:04:13;10.90;99.90
5723;DHT22;2886;49.722;8.612;2022-12-24T16:06:54;10.90;99.90
5723;DHT22;2886;49.722;8.612;2022-12-24T16:09:40;10.90;99.90
5723;DHT22;2886;49.722;8.612;2022-12-24T16:12:22;10.90;99.90
5723;DHT22;2886;49.722;8.612;2022-12-24T16:14:57;11.00;99.90
5723;DHT22;2886;49.722;8.612;2022-12-24T16:17:26;10.90;99.90
5723;DHT22;2886;49.722;8.612;2022-12-24T16:19:56;10.90;99.90
5723;DHT22;2886;49.722;8.612;2022-12-24T16:22:23;11.00;99.90
5723;DHT22;2886;49.722;8.612;2022-12-24T16:25:22;11.00;99.90
5723;DHT22;2886;49.722;8.612;2022-12-24T16:27:48;11.00;99.90
5723;DHT22;2886;49.722;8.612;2022-12-24T16:30:15;11.00;99.90
5723;DHT22;2886;49.722;8.612;2022-12-24T16:32:41;11.00;99.90
5723;DHT22;2886;49.722;8.612;2022-12-24T16:35:25;11.00;99.90
5723;DHT22;2886;49.722;8.612;2022-12-24T16:37:54;11.00;99.90
5723;DHT22;2886;49.722;8.612;2022-12-24T16:40:20;10.90;99.90
5723;DHT22;2886;49.722;8.612;2022-12-24T16:42:46;11.00;99.90
5723;DHT22;2886;49.722;8.612;2022-12-24T16:45:31;11.00;99.90
5723;DHT22;2886;49.722;8.612;2022-12-24T16:47:59;11.00;99.90
5723;DHT22;2886;49.722;8.612;2022-12-24T16:50:25;11.00;99.90
5723;DHT22;2886;49.722;8.612;2022-12-24T16:52:50;11.00;99.90
5723;DHT22;2886;49.722;8.612;2022-12-24T16:55:16;11.00;99.90
5723;DHT22;2886;49.722;8.612;2022-12-24T16:57:45;11.00;99.90
5723;DHT22;2886;49.722;8.612;2022-12-24T17:00:16;11.00;99.90
5723;DHT22;2886;49.722;8.612;2022-12-24T17:02:43;11.00;99.90
5723;DHT22;2886;49.722;8.612;2022-12-24T17:05:14;11.00;99.90
5723;DHT22;2886;49.722;8.612;2022-12-24T17:07:42;11.00;99.90
5723;DHT22;2886;49.722;8.612;2022-12-24T17:10:10;10.90;99.90
5723;DHT22;2886;49.722;8.612;2022-12-24T17:12:36;10.90;99.90
5723;DHT22;2886;49.722;8.612;2022-12-24T17:15:01;10.90;99.90
5723;DHT22;2886;49.722;8.612;2022-12-24T17:17:30;10.90;99.90
5723;DHT22;2886;49.722;8.612;2022-12-24T17:19:56;10.90;99.90
5723;DHT22;2886;49.722;8.612;2022-12-24T17:22:23;10.90;99.90
5723;DHT22;2886;49.722;8.612;2022-12-24T17:24:49;10.90;99.90
5723;DHT22;2886;49.722;8.612;2022-12-24T17:27:14;10.90;99.90
5723;DHT22;2886;49.722;8.612;2022-12-24T17:29:40;10.90;99.90
5723;DHT22;2886;49.722;8.612;2022-12-24T17:32:06;10.90;99.90
5723;DHT22;2886;49.722;8.612;2022-12-24T17:34:31;10.90;99.90
5723;DHT22;2886;49.722;8.612;2022-12-24T17:36:57;10.90;99.90
5723;DHT22;2886;49.722;8.612;2022-12-24T17:39:22;10.90;99.90
5723;DHT22;2886;49.722;8.612;2022-12-24T17:41:49;10.90;99.90
5723;DHT22;2886;49.722;8.612;2022-12-24T17:44:15;10.90;99.90
5723;DHT22;2886;49.722;8.612;2022-12-24T17:46:41;10.90;99.90
5723;DHT22;2886;49.722;8.612;2022-12-24T17:49:07;11.00;99.90
5723;DHT22;2886;49.722;8.612;2022-12-24T17:51:34;11.00;99.90
5723;DHT22;2886;49.722;8.612;2022-12-24T17:54:00;10.90;99.90
5723;DHT22;2886;49.722;8.612;2022-12-24T17:56:27;10.90;99.90
5723;DHT22;2886;49.722;8.612;2022-12-24T17:58:52;11.00;99.90
5723;DHT22;2886;49.722;8.612;2022-12-24T18:01:21;11.00;99.90
5723;DHT22;2886;49.722;8.612;2022-12-24T18:03:48;10.90;99.90
5723;DHT22;2886;49.722;8.612;2022-12-24T18:06:16;11.00;99.90
5723;DHT22;2886;49.722;8.612;2022-12-24T18:08:43;11.00;99.90
5723;DHT22;2886;49.722;8.612;2022-12-24T18:13:44;11.00;99.90
5723;DHT22;2886;49.722;8.612;2022-12-24T18:16:31;11.00;99.90